RED82 KCOS-KDEN
Flight info
| Callsign | RED82 |
|---|---|
| Flight time | 0h 33m |
| Altitude | 10000 |
| Route | KCOS RWY35L COS6 KCOS DCT NUBSE DCT KDEN VIA QWIKE RWY17RZ |
| Aircraft | C172/L-SG/L |
Departure
| Time | 2026-04-18 04:22 |
|---|---|
| Airport | City of Colorado Springs Municipal Airport (KCOS) |
Arrival
| Time | 2026-04-18 04:55 |
|---|---|
| Airport | Denver International Airport (KDEN) |
| Time | Latitude | Longitude | Altitude | Speed | Heading |
|---|---|---|---|---|---|
| 2026-04-18 04:02 | 38.80009 | -104.70081 | 6188 ft | 0 kts | 179° |
| 2026-04-18 04:13 | 38.80006 | -104.70098 | 6188 ft | 7 kts | 323° |
| 2026-04-18 04:13 | 38.80011 | -104.70102 | 6188 ft | 0 kts | 331° |
| 2026-04-18 04:13 | 38.80029 | -104.70099 | 6188 ft | 8 kts | 16° |
| 2026-04-18 04:14 | 38.80139 | -104.70090 | 6188 ft | 24 kts | 1° |
| 2026-04-18 04:14 | 38.80313 | -104.70152 | 6188 ft | 27 kts | 275° |
| 2026-04-18 04:14 | 38.80280 | -104.70352 | 6188 ft | 18 kts | 266° |
| 2026-04-18 04:14 | 38.80280 | -104.70492 | 6188 ft | 14 kts | 270° |
| 2026-04-18 04:15 | 38.80280 | -104.70609 | 6188 ft | 13 kts | 270° |
| 2026-04-18 04:15 | 38.80281 | -104.70735 | 6188 ft | 15 kts | 270° |
| 2026-04-18 04:15 | 38.80280 | -104.70877 | 6188 ft | 17 kts | 270° |
| 2026-04-18 04:15 | 38.80280 | -104.71036 | 6188 ft | 19 kts | 270° |
| 2026-04-18 04:16 | 38.80281 | -104.71197 | 6188 ft | 17 kts | 270° |
| 2026-04-18 04:16 | 38.80265 | -104.71333 | 6188 ft | 15 kts | 217° |
| 2026-04-18 04:16 | 38.80165 | -104.71351 | 6188 ft | 16 kts | 178° |
| 2026-04-18 04:16 | 38.80050 | -104.71350 | 6188 ft | 17 kts | 180° |
| 2026-04-18 04:17 | 38.79928 | -104.71350 | 6188 ft | 17 kts | 180° |
| 2026-04-18 04:17 | 38.79811 | -104.71350 | 6188 ft | 18 kts | 179° |
| 2026-04-18 04:17 | 38.79678 | -104.71350 | 6188 ft | 20 kts | 180° |
| 2026-04-18 04:17 | 38.79528 | -104.71350 | 6189 ft | 23 kts | 180° |
| 2026-04-18 04:18 | 38.79406 | -104.71369 | 6189 ft | 9 kts | 232° |
| 2026-04-18 04:18 | 38.79393 | -104.71443 | 6189 ft | 8 kts | 267° |
| 2026-04-18 04:18 | 38.79393 | -104.71475 | 6190 ft | 0 kts | 270° |
| 2026-04-18 04:20 | 38.79393 | -104.71514 | 6190 ft | 12 kts | 269° |
| 2026-04-18 04:20 | 38.79450 | -104.71599 | 6190 ft | 21 kts | 9° |
| 2026-04-18 04:20 | 38.79707 | -104.71591 | 6190 ft | 56 kts | 2° |
| 2026-04-18 04:20 | 38.80198 | -104.71595 | 6209 ft | 79 kts | 3° |
| 2026-04-18 04:21 | 38.80747 | -104.71467 | 6314 ft | 82 kts | 24° |
| 2026-04-18 04:21 | 38.81289 | -104.71170 | 6408 ft | 88 kts | 17° |
| 2026-04-18 04:21 | 38.81893 | -104.70954 | 6509 ft | 92 kts | 13° |
| 2026-04-18 04:21 | 38.82525 | -104.70751 | 6632 ft | 94 kts | 13° |
| 2026-04-18 04:22 | 38.83160 | -104.70533 | 6761 ft | 95 kts | 14° |
| 2026-04-18 04:22 | 38.83799 | -104.70309 | 6890 ft | 95 kts | 14° |
| 2026-04-18 04:22 | 38.84438 | -104.70089 | 7019 ft | 95 kts | 14° |
| 2026-04-18 04:22 | 38.85080 | -104.69873 | 7143 ft | 95 kts | 13° |
| 2026-04-18 04:23 | 38.85714 | -104.69665 | 7271 ft | 95 kts | 13° |
| 2026-04-18 04:23 | 38.86356 | -104.69459 | 7394 ft | 95 kts | 13° |
| 2026-04-18 04:23 | 38.86999 | -104.69255 | 7520 ft | 95 kts | 12° |
| 2026-04-18 04:23 | 38.87643 | -104.69054 | 7644 ft | 95 kts | 12° |
| 2026-04-18 04:24 | 38.88286 | -104.68856 | 7764 ft | 95 kts | 12° |
| 2026-04-18 04:24 | 38.88930 | -104.68660 | 7882 ft | 95 kts | 12° |
| 2026-04-18 04:24 | 38.89573 | -104.68466 | 7996 ft | 95 kts | 12° |
| 2026-04-18 04:24 | 38.90215 | -104.68272 | 8107 ft | 95 kts | 12° |
| 2026-04-18 04:25 | 38.90855 | -104.68067 | 8221 ft | 95 kts | 14° |
| 2026-04-18 04:25 | 38.91483 | -104.67809 | 8331 ft | 95 kts | 18° |
| 2026-04-18 04:25 | 38.92087 | -104.67451 | 8431 ft | 96 kts | 26° |
| 2026-04-18 04:25 | 38.92668 | -104.67055 | 8582 ft | 90 kts | 27° |
| 2026-04-18 04:26 | 38.93185 | -104.66698 | 8733 ft | 83 kts | 27° |
| 2026-04-18 04:26 | 38.93680 | -104.66355 | 8835 ft | 79 kts | 27° |
| 2026-04-18 04:26 | 38.94151 | -104.66028 | 8931 ft | 76 kts | 27° |
| 2026-04-18 04:26 | 38.94614 | -104.65707 | 8995 ft | 76 kts | 27° |
| 2026-04-18 04:27 | 38.95100 | -104.65369 | 9019 ft | 83 kts | 27° |
| 2026-04-18 04:27 | 38.95631 | -104.65002 | 9051 ft | 91 kts | 27° |
| 2026-04-18 04:27 | 38.96208 | -104.64603 | 9094 ft | 96 kts | 27° |
| 2026-04-18 04:27 | 38.96803 | -104.64193 | 9177 ft | 98 kts | 27° |
| 2026-04-18 04:28 | 38.97406 | -104.63778 | 9257 ft | 99 kts | 27° |
| 2026-04-18 04:28 | 38.98016 | -104.63358 | 9336 ft | 100 kts | 27° |
| 2026-04-18 04:28 | 38.98631 | -104.62936 | 9433 ft | 99 kts | 27° |
| 2026-04-18 04:28 | 38.99229 | -104.62525 | 9549 ft | 96 kts | 27° |
| 2026-04-18 04:29 | 38.99809 | -104.62125 | 9663 ft | 93 kts | 27° |
| 2026-04-18 04:29 | 39.00368 | -104.61739 | 9775 ft | 89 kts | 27° |
| 2026-04-18 04:29 | 39.00904 | -104.61369 | 9884 ft | 85 kts | 27° |
| 2026-04-18 04:29 | 39.01414 | -104.61015 | 9982 ft | 82 kts | 27° |
| 2026-04-18 04:30 | 39.01931 | -104.60657 | 10008 ft | 88 kts | 27° |
| 2026-04-18 04:30 | 39.02499 | -104.60264 | 10015 ft | 97 kts | 27° |
| 2026-04-18 04:30 | 39.03123 | -104.59835 | 10010 ft | 106 kts | 27° |
| 2026-04-18 04:30 | 39.03793 | -104.59376 | 10007 ft | 112 kts | 27° |
| 2026-04-18 04:31 | 39.04494 | -104.58896 | 10009 ft | 116 kts | 27° |
| 2026-04-18 04:31 | 39.05240 | -104.58497 | 9997 ft | 118 kts | 1° |
| 2026-04-18 04:31 | 39.06048 | -104.58636 | 10010 ft | 118 kts | 353° |
| 2026-04-18 04:31 | 39.06869 | -104.58726 | 10008 ft | 119 kts | 354° |
| 2026-04-18 04:32 | 39.07698 | -104.58813 | 10008 ft | 120 kts | 355° |
| 2026-04-18 04:32 | 39.08530 | -104.58892 | 10009 ft | 120 kts | 355° |
| 2026-04-18 04:32 | 39.09365 | -104.58969 | 10008 ft | 120 kts | 355° |
| 2026-04-18 04:32 | 39.10201 | -104.59045 | 10008 ft | 120 kts | 355° |
| 2026-04-18 04:33 | 39.11037 | -104.59121 | 10009 ft | 121 kts | 355° |
| 2026-04-18 04:33 | 39.11876 | -104.59197 | 10009 ft | 121 kts | 355° |
| 2026-04-18 04:33 | 39.12717 | -104.59273 | 10013 ft | 121 kts | 355° |
| 2026-04-18 04:33 | 39.13558 | -104.59350 | 10008 ft | 121 kts | 355° |
| 2026-04-18 04:34 | 39.14113 | -104.59400 | 10008 ft | 121 kts | 355° |
| 2026-04-18 04:34 | 39.15222 | -104.59501 | 10007 ft | 121 kts | 355° |
| 2026-04-18 04:34 | 39.16059 | -104.59577 | 10007 ft | 121 kts | 355° |
| 2026-04-18 04:34 | 39.16897 | -104.59654 | 10008 ft | 121 kts | 355° |
| 2026-04-18 04:35 | 39.17735 | -104.59729 | 10007 ft | 121 kts | 355° |
| 2026-04-18 04:35 | 39.18572 | -104.59806 | 10012 ft | 121 kts | 355° |
| 2026-04-18 04:35 | 39.19410 | -104.59882 | 10012 ft | 121 kts | 355° |
| 2026-04-18 04:35 | 39.20247 | -104.59979 | 10007 ft | 121 kts | 352° |
| 2026-04-18 04:36 | 39.20810 | -104.60072 | 10008 ft | 121 kts | 352° |
| 2026-04-18 04:36 | 39.21636 | -104.60158 | 10008 ft | 121 kts | 357° |
| 2026-04-18 04:36 | 39.22477 | -104.60199 | 10008 ft | 121 kts | 356° |
| 2026-04-18 04:36 | 39.23328 | -104.60249 | 10008 ft | 121 kts | 356° |
| 2026-04-18 04:37 | 39.24157 | -104.60302 | 10012 ft | 121 kts | 356° |
| 2026-04-18 04:37 | 39.24996 | -104.60356 | 10008 ft | 121 kts | 356° |
| 2026-04-18 04:37 | 39.25829 | -104.60477 | 10007 ft | 121 kts | 348° |
| 2026-04-18 04:37 | 39.26649 | -104.60698 | 10007 ft | 121 kts | 347° |
| 2026-04-18 04:38 | 39.27471 | -104.60923 | 10008 ft | 121 kts | 347° |
| 2026-04-18 04:38 | 39.28291 | -104.61147 | 10007 ft | 121 kts | 347° |
| 2026-04-18 04:38 | 39.29113 | -104.61371 | 10007 ft | 121 kts | 347° |
| 2026-04-18 04:38 | 39.29933 | -104.61594 | 10007 ft | 120 kts | 347° |
| 2026-04-18 04:39 | 39.30753 | -104.61818 | 10007 ft | 120 kts | 347° |
| 2026-04-18 04:39 | 39.31573 | -104.62042 | 10007 ft | 120 kts | 347° |
| 2026-04-18 04:39 | 39.32393 | -104.62265 | 10007 ft | 120 kts | 347° |
| 2026-04-18 04:39 | 39.33214 | -104.62489 | 10007 ft | 120 kts | 347° |
| 2026-04-18 04:40 | 39.34034 | -104.62712 | 10007 ft | 120 kts | 347° |
| 2026-04-18 04:40 | 39.34854 | -104.62936 | 10006 ft | 120 kts | 347° |
| 2026-04-18 04:40 | 39.35675 | -104.63160 | 10001 ft | 121 kts | 347° |
| 2026-04-18 04:40 | 39.36498 | -104.63384 | 10006 ft | 121 kts | 347° |
| 2026-04-18 04:41 | 39.37320 | -104.63609 | 10001 ft | 121 kts | 347° |
| 2026-04-18 04:41 | 39.38140 | -104.63850 | 10000 ft | 121 kts | 342° |
| 2026-04-18 04:41 | 39.38872 | -104.64365 | 9996 ft | 120 kts | 333° |
| 2026-04-18 04:41 | 39.39687 | -104.64594 | 9994 ft | 120 kts | 339° |
| 2026-04-18 04:42 | 39.40431 | -104.65074 | 10000 ft | 120 kts | 333° |
| 2026-04-18 04:42 | 39.41180 | -104.65540 | 10001 ft | 120 kts | 333° |
| 2026-04-18 04:42 | 39.41924 | -104.66028 | 10001 ft | 120 kts | 332° |
| 2026-04-18 04:42 | 39.42676 | -104.66491 | 9999 ft | 121 kts | 344° |
| 2026-04-18 04:43 | 39.43512 | -104.66498 | 10003 ft | 121 kts | 1° |
| 2026-04-18 04:43 | 39.44352 | -104.66504 | 10005 ft | 121 kts | 359° |
| 2026-04-18 04:43 | 39.45196 | -104.66501 | 9977 ft | 123 kts | 360° |
| 2026-04-18 04:43 | 39.46052 | -104.66492 | 9938 ft | 126 kts | 360° |
| 2026-04-18 04:44 | 39.46956 | -104.66483 | 9762 ft | 134 kts | 360° |
| 2026-04-18 04:44 | 39.47874 | -104.66471 | 9506 ft | 129 kts | 360° |
| 2026-04-18 04:44 | 39.48762 | -104.66459 | 9249 ft | 126 kts | 360° |
| 2026-04-18 04:44 | 39.49630 | -104.66449 | 8995 ft | 124 kts | 360° |
| 2026-04-18 04:45 | 39.50488 | -104.66439 | 8743 ft | 123 kts | 360° |
| 2026-04-18 04:45 | 39.51340 | -104.66429 | 8493 ft | 122 kts | 360° |
| 2026-04-18 04:45 | 39.52190 | -104.66420 | 8243 ft | 122 kts | 360° |
| 2026-04-18 04:45 | 39.53038 | -104.66410 | 7994 ft | 122 kts | 360° |
| 2026-04-18 04:46 | 39.53884 | -104.66400 | 7744 ft | 121 kts | 360° |
| 2026-04-18 04:46 | 39.54729 | -104.66390 | 7496 ft | 121 kts | 360° |
| 2026-04-18 04:46 | 39.55561 | -104.66381 | 7250 ft | 121 kts | 360° |
| 2026-04-18 04:46 | 39.56415 | -104.66370 | 7011 ft | 120 kts | 360° |
| 2026-04-18 04:47 | 39.57196 | -104.66361 | 6985 ft | 105 kts | 360° |
| 2026-04-18 04:47 | 39.57884 | -104.66353 | 7004 ft | 101 kts | 359° |
| 2026-04-18 04:47 | 39.58623 | -104.66346 | 7010 ft | 111 kts | 359° |
| 2026-04-18 04:47 | 39.59420 | -104.66338 | 7012 ft | 117 kts | 360° |
| 2026-04-18 04:48 | 39.60252 | -104.66328 | 7002 ft | 121 kts | 360° |
| 2026-04-18 04:48 | 39.61100 | -104.66318 | 7006 ft | 123 kts | 360° |
| 2026-04-18 04:48 | 39.61959 | -104.66307 | 7010 ft | 124 kts | 360° |
| 2026-04-18 04:48 | 39.62824 | -104.66297 | 7010 ft | 124 kts | 360° |
| 2026-04-18 04:49 | 39.63690 | -104.66286 | 7009 ft | 125 kts | 360° |
| 2026-04-18 04:49 | 39.64559 | -104.66275 | 6998 ft | 126 kts | 360° |
| 2026-04-18 04:49 | 39.65460 | -104.66264 | 6844 ft | 133 kts | 360° |
| 2026-04-18 04:49 | 39.66400 | -104.66251 | 6595 ft | 135 kts | 0° |
| 2026-04-18 04:50 | 39.67332 | -104.66239 | 6344 ft | 134 kts | 0° |
| 2026-04-18 04:50 | 39.68260 | -104.66228 | 6094 ft | 133 kts | 0° |
| 2026-04-18 04:50 | 39.69158 | -104.66218 | 6057 ft | 122 kts | 0° |
| 2026-04-18 04:50 | 39.69987 | -104.66206 | 6165 ft | 117 kts | 359° |
| 2026-04-18 04:51 | 39.70796 | -104.66210 | 6249 ft | 115 kts | 359° |
| 2026-04-18 04:51 | 39.71605 | -104.66220 | 6293 ft | 118 kts | 359° |
| 2026-04-18 04:51 | 39.72435 | -104.66214 | 6305 ft | 121 kts | 0° |
| 2026-04-18 04:51 | 39.73275 | -104.66205 | 6354 ft | 119 kts | 0° |
| 2026-04-18 04:52 | 39.74100 | -104.66178 | 6391 ft | 121 kts | 1° |
| 2026-04-18 04:52 | 39.74945 | -104.66142 | 6417 ft | 121 kts | 1° |
| 2026-04-18 04:52 | 39.75802 | -104.66123 | 6407 ft | 124 kts | 359° |
| 2026-04-18 04:52 | 39.76667 | -104.66114 | 6387 ft | 126 kts | 0° |
| 2026-04-18 04:53 | 39.77545 | -104.66104 | 6266 ft | 122 kts | 360° |
| 2026-04-18 04:53 | 39.78385 | -104.66096 | 6109 ft | 119 kts | 359° |
| 2026-04-18 04:53 | 39.79171 | -104.66091 | 5958 ft | 110 kts | 359° |
| 2026-04-18 04:53 | 39.79918 | -104.66098 | 5843 ft | 104 kts | 359° |
| 2026-04-18 04:54 | 39.80645 | -104.66089 | 5698 ft | 104 kts | 0° |
| 2026-04-18 04:54 | 39.81321 | -104.66080 | 5595 ft | 93 kts | 0° |
| 2026-04-18 04:54 | 39.81953 | -104.66067 | 5520 ft | 89 kts | 2° |
| 2026-04-18 04:54 | 39.82568 | -104.66057 | 5417 ft | 88 kts | 359° |
| 2026-04-18 04:55 | 39.83152 | -104.66051 | 5359 ft | 75 kts | 1° |
| 2026-04-18 04:55 | 39.83526 | -104.66045 | 5353 ft | 31 kts | 1° |
| 2026-04-18 04:55 | 39.83697 | -104.66046 | 5357 ft | 22 kts | 358° |
| 2026-04-18 04:56 | 39.83641 | -104.66172 | 5358 ft | 10 kts | 211° |
| 2026-04-18 04:56 | 39.83634 | -104.66178 | 5358 ft | 0 kts | 210° |
| 2026-04-18 04:57 | 39.83632 | -104.66179 | 5358 ft | 2 kts | 210° |
| 2026-04-18 04:58 | 39.83623 | -104.66239 | 5359 ft | 13 kts | 328° |
| 2026-04-18 04:58 | 39.83729 | -104.66259 | 5361 ft | 17 kts | 0° |
| 2026-04-18 04:58 | 39.83851 | -104.66257 | 5364 ft | 18 kts | 1° |
| 2026-04-18 04:58 | 39.83980 | -104.66264 | 5366 ft | 19 kts | 344° |
| 2026-04-18 04:59 | 39.83992 | -104.66388 | 5371 ft | 13 kts | 259° |
| 2026-04-18 04:59 | 39.83980 | -104.66477 | 5375 ft | 7 kts | 267° |
| 2026-04-18 04:59 | 39.83996 | -104.66484 | 5373 ft | 0 kts | 32° |